sensor_id;sensor_type;location;lat;lon;timestamp;P1;durP1;ratioP1;P2;durP2;ratioP2
14613;SDS011;7393;51.446;6.800;2023-08-17T00:00:44;7.17;;;2.90;;
14613;SDS011;7393;51.446;6.800;2023-08-17T00:03:10;3.40;;;2.50;;
14613;SDS011;7393;51.446;6.800;2023-08-17T00:05:39;5.53;;;2.57;;
14613;SDS011;7393;51.446;6.800;2023-08-17T00:08:06;5.47;;;2.83;;
14613;SDS011;7393;51.446;6.800;2023-08-17T00:10:33;6.63;;;2.43;;
14613;SDS011;7393;51.446;6.800;2023-08-17T00:12:59;4.80;;;3.00;;
14613;SDS011;7393;51.446;6.800;2023-08-17T00:15:30;3.63;;;2.90;;
14613;SDS011;7393;51.446;6.800;2023-08-17T00:17:57;6.23;;;2.83;;
14613;SDS011;7393;51.446;6.800;2023-08-17T00:20:24;5.17;;;2.70;;
14613;SDS011;7393;51.446;6.800;2023-08-17T00:22:51;4.07;;;2.60;;
14613;SDS011;7393;51.446;6.800;2023-08-17T00:25:17;4.63;;;2.90;;
14613;SDS011;7393;51.446;6.800;2023-08-17T00:27:44;6.03;;;3.00;;
14613;SDS011;7393;51.446;6.800;2023-08-17T00:30:12;4.27;;;2.60;;
14613;SDS011;7393;51.446;6.800;2023-08-17T00:32:41;4.03;;;2.37;;
14613;SDS011;7393;51.446;6.800;2023-08-17T00:35:07;3.23;;;2.30;;
14613;SDS011;7393;51.446;6.800;2023-08-17T00:37:34;5.60;;;2.83;;
14613;SDS011;7393;51.446;6.800;2023-08-17T00:40:01;3.97;;;2.80;;
14613;SDS011;7393;51.446;6.800;2023-08-17T00:42:29;4.97;;;2.60;;
14613;SDS011;7393;51.446;6.800;2023-08-17T00:44:56;2.90;;;2.50;;
14613;SDS011;7393;51.446;6.800;2023-08-17T00:47:23;4.73;;;2.60;;
14613;SDS011;7393;51.446;6.800;2023-08-17T00:49:52;2.83;;;2.30;;
14613;SDS011;7393;51.446;6.800;2023-08-17T00:52:20;3.67;;;2.63;;
14613;SDS011;7393;51.446;6.800;2023-08-17T00:54:46;5.67;;;2.70;;
14613;SDS011;7393;51.446;6.800;2023-08-17T00:57:13;3.83;;;2.37;;
14613;SDS011;7393;51.446;6.800;2023-08-17T00:59:40;5.13;;;2.57;;
14613;SDS011;7393;51.446;6.800;2023-08-17T01:02:07;6.30;;;2.80;;
14613;SDS011;7393;51.446;6.800;2023-08-17T01:04:35;2.40;;;2.20;;
14613;SDS011;7393;51.446;6.800;2023-08-17T01:07:03;3.60;;;2.20;;
14613;SDS011;7393;51.446;6.800;2023-08-17T01:09:30;4.80;;;2.37;;
14613;SDS011;7393;51.446;6.800;2023-08-17T01:11:58;4.07;;;2.77;;
14613;SDS011;7393;51.446;6.800;2023-08-17T01:14:32;5.60;;;2.47;;
14613;SDS011;7393;51.446;6.800;2023-08-17T01:17:06;5.23;;;2.50;;
14613;SDS011;7393;51.446;6.800;2023-08-17T01:19:37;2.53;;;2.03;;
14613;SDS011;7393;51.446;6.800;2023-08-17T01:22:08;4.67;;;2.53;;
14613;SDS011;7393;51.446;6.800;2023-08-17T01:24:38;4.47;;;2.40;;
14613;SDS011;7393;51.446;6.800;2023-08-17T01:27:05;2.47;;;2.23;;
14613;SDS011;7393;51.446;6.800;2023-08-17T01:29:32;2.90;;;2.47;;
14613;SDS011;7393;51.446;6.800;2023-08-17T01:32:00;4.13;;;2.50;;
14613;SDS011;7393;51.446;6.800;2023-08-17T01:34:36;3.37;;;2.43;;
14613;SDS011;7393;51.446;6.800;2023-08-17T01:37:07;2.43;;;2.20;;
14613;SDS011;7393;51.446;6.800;2023-08-17T01:39:37;5.30;;;2.83;;
14613;SDS011;7393;51.446;6.800;2023-08-17T01:42:09;4.40;;;2.50;;
14613;SDS011;7393;51.446;6.800;2023-08-17T01:44:38;3.60;;;2.77;;
14613;SDS011;7393;51.446;6.800;2023-08-17T01:47:05;4.60;;;2.50;;
14613;SDS011;7393;51.446;6.800;2023-08-17T01:49:31;6.10;;;2.40;;
14613;SDS011;7393;51.446;6.800;2023-08-17T01:51:58;4.87;;;2.70;;
14613;SDS011;7393;51.446;6.800;2023-08-17T01:54:26;4.10;;;2.50;;
14613;SDS011;7393;51.446;6.800;2023-08-17T01:56:54;3.93;;;2.40;;
14613;SDS011;7393;51.446;6.800;2023-08-17T01:59:21;4.00;;;2.10;;
14613;SDS011;7393;51.446;6.800;2023-08-17T02:01:48;3.93;;;2.30;;
14613;SDS011;7393;51.446;6.800;2023-08-17T02:04:14;6.40;;;2.10;;
14613;SDS011;7393;51.446;6.800;2023-08-17T02:06:42;4.20;;;2.20;;
14613;SDS011;7393;51.446;6.800;2023-08-17T02:09:08;7.83;;;2.60;;
14613;SDS011;7393;51.446;6.800;2023-08-17T02:11:35;3.57;;;2.10;;
14613;SDS011;7393;51.446;6.800;2023-08-17T02:14:04;3.00;;;2.50;;
14613;SDS011;7393;51.446;6.800;2023-08-17T02:16:30;4.17;;;2.20;;
14613;SDS011;7393;51.446;6.800;2023-08-17T02:18:58;5.77;;;2.67;;
14613;SDS011;7393;51.446;6.800;2023-08-17T02:21:24;5.87;;;2.60;;
14613;SDS011;7393;51.446;6.800;2023-08-17T02:23:51;5.83;;;2.60;;
14613;SDS011;7393;51.446;6.800;2023-08-17T02:26:18;5.63;;;3.47;;
14613;SDS011;7393;51.446;6.800;2023-08-17T02:28:45;4.90;;;2.93;;
14613;SDS011;7393;51.446;6.800;2023-08-17T02:31:13;4.43;;;2.97;;
14613;SDS011;7393;51.446;6.800;2023-08-17T02:33:40;7.33;;;3.10;;
14613;SDS011;7393;51.446;6.800;2023-08-17T02:36:07;3.73;;;3.23;;
14613;SDS011;7393;51.446;6.800;2023-08-17T02:38:33;4.73;;;3.10;;
14613;SDS011;7393;51.446;6.800;2023-08-17T02:41:00;4.23;;;3.47;;
14613;SDS011;7393;51.446;6.800;2023-08-17T02:43:27;5.63;;;3.60;;
14613;SDS011;7393;51.446;6.800;2023-08-17T02:45:54;6.23;;;3.63;;
14613;SDS011;7393;51.446;6.800;2023-08-17T02:48:22;8.80;;;3.80;;
14613;SDS011;7393;51.446;6.800;2023-08-17T02:50:49;4.73;;;3.67;;
14613;SDS011;7393;51.446;6.800;2023-08-17T02:53:16;5.57;;;3.47;;
14613;SDS011;7393;51.446;6.800;2023-08-17T02:55:43;5.73;;;3.43;;
14613;SDS011;7393;51.446;6.800;2023-08-17T02:58:09;5.53;;;3.77;;
14613;SDS011;7393;51.446;6.800;2023-08-17T03:00:36;6.73;;;4.20;;
14613;SDS011;7393;51.446;6.800;2023-08-17T03:03:03;6.90;;;3.83;;
14613;SDS011;7393;51.446;6.800;2023-08-17T03:05:32;6.90;;;3.73;;
14613;SDS011;7393;51.446;6.800;2023-08-17T03:07:59;4.43;;;3.47;;
14613;SDS011;7393;51.446;6.800;2023-08-17T03:10:26;4.93;;;3.87;;
14613;SDS011;7393;51.446;6.800;2023-08-17T03:12:53;5.47;;;3.67;;
14613;SDS011;7393;51.446;6.800;2023-08-17T03:15:20;3.97;;;3.23;;
14613;SDS011;7393;51.446;6.800;2023-08-17T03:17:47;4.30;;;3.40;;
14613;SDS011;7393;51.446;6.800;2023-08-17T03:20:13;4.63;;;3.30;;
14613;SDS011;7393;51.446;6.800;2023-08-17T03:22:42;4.33;;;2.97;;
14613;SDS011;7393;51.446;6.800;2023-08-17T03:25:08;8.53;;;3.47;;
14613;SDS011;7393;51.446;6.800;2023-08-17T03:27:35;7.97;;;3.03;;
14613;SDS011;7393;51.446;6.800;2023-08-17T03:30:03;5.80;;;3.13;;
14613;SDS011;7393;51.446;6.800;2023-08-17T03:32:30;5.47;;;2.90;;
14613;SDS011;7393;51.446;6.800;2023-08-17T03:34:57;4.43;;;2.87;;
14613;SDS011;7393;51.446;6.800;2023-08-17T03:37:24;4.57;;;3.20;;
14613;SDS011;7393;51.446;6.800;2023-08-17T03:39:52;7.30;;;3.20;;
14613;SDS011;7393;51.446;6.800;2023-08-17T03:42:19;6.73;;;3.37;;
14613;SDS011;7393;51.446;6.800;2023-08-17T03:44:46;4.20;;;3.10;;
14613;SDS011;7393;51.446;6.800;2023-08-17T03:47:12;4.27;;;3.43;;
14613;SDS011;7393;51.446;6.800;2023-08-17T03:49:39;3.93;;;3.20;;
14613;SDS011;7393;51.446;6.800;2023-08-17T03:52:06;3.77;;;2.83;;
14613;SDS011;7393;51.446;6.800;2023-08-17T03:54:33;4.60;;;3.10;;
14613;SDS011;7393;51.446;6.800;2023-08-17T03:57:01;5.20;;;2.93;;
14613;SDS011;7393;51.446;6.800;2023-08-17T03:59:28;4.73;;;3.50;;
14613;SDS011;7393;51.446;6.800;2023-08-17T04:01:55;4.30;;;3.00;;
14613;SDS011;7393;51.446;6.800;2023-08-17T04:04:21;5.73;;;3.30;;
14613;SDS011;7393;51.446;6.800;2023-08-17T04:06:48;6.40;;;2.97;;
14613;SDS011;7393;51.446;6.800;2023-08-17T04:09:15;6.23;;;2.83;;
14613;SDS011;7393;51.446;6.800;2023-08-17T04:11:42;5.70;;;2.70;;
14613;SDS011;7393;51.446;6.800;2023-08-17T04:14:10;5.40;;;2.80;;
14613;SDS011;7393;51.446;6.800;2023-08-17T04:16:37;3.90;;;2.50;;
14613;SDS011;7393;51.446;6.800;2023-08-17T04:19:04;7.27;;;2.83;;
14613;SDS011;7393;51.446;6.800;2023-08-17T04:21:31;4.33;;;2.50;;
14613;SDS011;7393;51.446;6.800;2023-08-17T04:23:58;3.10;;;2.30;;
14613;SDS011;7393;51.446;6.800;2023-08-17T04:26:24;4.97;;;3.17;;
14613;SDS011;7393;51.446;6.800;2023-08-17T04:28:51;3.80;;;2.23;;
14613;SDS011;7393;51.446;6.800;2023-08-17T04:31:19;5.97;;;2.83;;
14613;SDS011;7393;51.446;6.800;2023-08-17T04:33:46;7.73;;;2.80;;
14613;SDS011;7393;51.446;6.800;2023-08-17T04:36:13;4.73;;;2.80;;
14613;SDS011;7393;51.446;6.800;2023-08-17T04:38:40;10.27;;;3.43;;
14613;SDS011;7393;51.446;6.800;2023-08-17T04:41:06;6.27;;;3.17;;
14613;SDS011;7393;51.446;6.800;2023-08-17T04:43:33;7.20;;;2.90;;
14613;SDS011;7393;51.446;6.800;2023-08-17T04:46:00;3.97;;;2.70;;
14613;SDS011;7393;51.446;6.800;2023-08-17T04:48:28;3.47;;;2.50;;
14613;SDS011;7393;51.446;6.800;2023-08-17T04:50:55;9.93;;;3.13;;
14613;SDS011;7393;51.446;6.800;2023-08-17T04:53:22;5.17;;;2.60;;
14613;SDS011;7393;51.446;6.800;2023-08-17T04:55:49;5.70;;;3.00;;
14613;SDS011;7393;51.446;6.800;2023-08-17T04:58:15;4.63;;;2.60;;
14613;SDS011;7393;51.446;6.800;2023-08-17T05:00:42;4.73;;;2.90;;
14613;SDS011;7393;51.446;6.800;2023-08-17T05:03:09;8.57;;;3.27;;
14613;SDS011;7393;51.446;6.800;2023-08-17T05:05:37;6.20;;;2.70;;
14613;SDS011;7393;51.446;6.800;2023-08-17T05:08:04;4.73;;;2.70;;
14613;SDS011;7393;51.446;6.800;2023-08-17T05:10:31;5.10;;;2.63;;
14613;SDS011;7393;51.446;6.800;2023-08-17T05:12:58;5.97;;;2.60;;
14613;SDS011;7393;51.446;6.800;2023-08-17T05:15:25;4.43;;;2.50;;
14613;SDS011;7393;51.446;6.800;2023-08-17T05:17:51;4.13;;;2.50;;
14613;SDS011;7393;51.446;6.800;2023-08-17T05:20:18;5.90;;;2.70;;
14613;SDS011;7393;51.446;6.800;2023-08-17T05:22:47;4.60;;;2.63;;
14613;SDS011;7393;51.446;6.800;2023-08-17T05:25:14;4.30;;;2.60;;
14613;SDS011;7393;51.446;6.800;2023-08-17T05:27:41;4.67;;;2.63;;
14613;SDS011;7393;51.446;6.800;2023-08-17T05:30:08;4.67;;;2.97;;
14613;SDS011;7393;51.446;6.800;2023-08-17T05:32:35;6.17;;;2.50;;
14613;SDS011;7393;51.446;6.800;2023-08-17T05:35:02;4.87;;;2.50;;
14613;SDS011;7393;51.446;6.800;2023-08-17T05:37:29;6.27;;;3.00;;
14613;SDS011;7393;51.446;6.800;2023-08-17T05:39:57;5.17;;;2.80;;
14613;SDS011;7393;51.446;6.800;2023-08-17T05:42:24;6.17;;;3.20;;
14613;SDS011;7393;51.446;6.800;2023-08-17T05:44:51;6.17;;;3.40;;
14613;SDS011;7393;51.446;6.800;2023-08-17T05:47:18;6.63;;;2.87;;
14613;SDS011;7393;51.446;6.800;2023-08-17T05:49:44;4.63;;;3.00;;
14613;SDS011;7393;51.446;6.800;2023-08-17T05:52:11;4.10;;;2.70;;
14613;SDS011;7393;51.446;6.800;2023-08-17T05:54:38;7.20;;;2.87;;
14613;SDS011;7393;51.446;6.800;2023-08-17T05:57:07;8.47;;;3.60;;
14613;SDS011;7393;51.446;6.800;2023-08-17T05:59:35;8.43;;;3.83;;
14613;SDS011;7393;51.446;6.800;2023-08-17T06:02:01;5.13;;;3.57;;
14613;SDS011;7393;51.446;6.800;2023-08-17T06:04:28;7.50;;;4.07;;
14613;SDS011;7393;51.446;6.800;2023-08-17T06:06:55;7.27;;;3.77;;
14613;SDS011;7393;51.446;6.800;2023-08-17T06:09:22;5.50;;;3.53;;
14613;SDS011;7393;51.446;6.800;2023-08-17T06:11:49;5.20;;;3.60;;
14613;SDS011;7393;51.446;6.800;2023-08-17T06:14:17;6.23;;;3.57;;
14613;SDS011;7393;51.446;6.800;2023-08-17T06:16:44;5.27;;;3.40;;
14613;SDS011;7393;51.446;6.800;2023-08-17T06:19:11;8.23;;;4.53;;
14613;SDS011;7393;51.446;6.800;2023-08-17T06:21:38;5.07;;;3.90;;
14613;SDS011;7393;51.446;6.800;2023-08-17T06:24:05;6.33;;;3.80;;
14613;SDS011;7393;51.446;6.800;2023-08-17T06:26:32;6.30;;;4.40;;
14613;SDS011;7393;51.446;6.800;2023-08-17T06:28:59;5.87;;;3.73;;
14613;SDS011;7393;51.446;6.800;2023-08-17T06:31:27;6.03;;;4.10;;
14613;SDS011;7393;51.446;6.800;2023-08-17T06:33:54;7.10;;;4.10;;
14613;SDS011;7393;51.446;6.800;2023-08-17T06:36:20;9.60;;;4.20;;
14613;SDS011;7393;51.446;6.800;2023-08-17T06:38:47;8.30;;;5.37;;
14613;SDS011;7393;51.446;6.800;2023-08-17T06:41:15;7.13;;;4.20;;
14613;SDS011;7393;51.446;6.800;2023-08-17T06:43:42;7.23;;;5.93;;
14613;SDS011;7393;51.446;6.800;2023-08-17T06:46:09;8.43;;;6.87;;
14613;SDS011;7393;51.446;6.800;2023-08-17T06:48:37;8.53;;;7.10;;
14613;SDS011;7393;51.446;6.800;2023-08-17T06:51:04;10.10;;;7.40;;
14613;SDS011;7393;51.446;6.800;2023-08-17T06:53:31;11.70;;;8.50;;
14613;SDS011;7393;51.446;6.800;2023-08-17T06:55:58;12.30;;;9.00;;
14613;SDS011;7393;51.446;6.800;2023-08-17T06:58:25;14.60;;;9.53;;
14613;SDS011;7393;51.446;6.800;2023-08-17T07:00:52;10.83;;;8.57;;
14613;SDS011;7393;51.446;6.800;2023-08-17T07:03:18;11.93;;;9.10;;
14613;SDS011;7393;51.446;6.800;2023-08-17T07:05:47;12.47;;;9.90;;
14613;SDS011;7393;51.446;6.800;2023-08-17T07:08:14;15.23;;;9.57;;
14613;SDS011;7393;51.446;6.800;2023-08-17T07:10:41;12.43;;;8.80;;
14613;SDS011;7393;51.446;6.800;2023-08-17T07:13:08;13.00;;;9.33;;
14613;SDS011;7393;51.446;6.800;2023-08-17T07:15:35;14.37;;;10.33;;
14613;SDS011;7393;51.446;6.800;2023-08-17T07:18:02;10.77;;;9.30;;
14613;SDS011;7393;51.446;6.800;2023-08-17T07:20:30;11.07;;;8.83;;
14613;SDS011;7393;51.446;6.800;2023-08-17T07:22:58;11.53;;;9.00;;
14613;SDS011;7393;51.446;6.800;2023-08-17T07:25:24;12.07;;;7.97;;
14613;SDS011;7393;51.446;6.800;2023-08-17T07:27:51;11.83;;;9.20;;
14613;SDS011;7393;51.446;6.800;2023-08-17T07:30:18;14.70;;;9.10;;
14613;SDS011;7393;51.446;6.800;2023-08-17T07:32:45;12.37;;;8.97;;
14613;SDS011;7393;51.446;6.800;2023-08-17T07:35:12;13.10;;;8.27;;
14613;SDS011;7393;51.446;6.800;2023-08-17T07:37:38;14.50;;;10.50;;
14613;SDS011;7393;51.446;6.800;2023-08-17T07:40:07;15.00;;;9.70;;
14613;SDS011;7393;51.446;6.800;2023-08-17T07:42:34;18.37;;;11.20;;
14613;SDS011;7393;51.446;6.800;2023-08-17T07:45:02;16.87;;;11.93;;
14613;SDS011;7393;51.446;6.800;2023-08-17T07:47:31;17.40;;;12.43;;
14613;SDS011;7393;51.446;6.800;2023-08-17T07:49:57;16.83;;;11.00;;
14613;SDS011;7393;51.446;6.800;2023-08-17T07:52:24;13.37;;;11.10;;
14613;SDS011;7393;51.446;6.800;2023-08-17T07:54:51;16.63;;;10.73;;
14613;SDS011;7393;51.446;6.800;2023-08-17T07:57:19;16.40;;;11.77;;
14613;SDS011;7393;51.446;6.800;2023-08-17T07:59:46;16.13;;;10.83;;
14613;SDS011;7393;51.446;6.800;2023-08-17T08:02:13;15.33;;;11.00;;
14613;SDS011;7393;51.446;6.800;2023-08-17T08:04:40;11.17;;;9.20;;
14613;SDS011;7393;51.446;6.800;2023-08-17T08:07:07;14.93;;;10.47;;
14613;SDS011;7393;51.446;6.800;2023-08-17T08:09:33;19.13;;;11.97;;
14613;SDS011;7393;51.446;6.800;2023-08-17T08:12:00;16.70;;;13.27;;
14613;SDS011;7393;51.446;6.800;2023-08-17T08:14:29;14.53;;;11.57;;
14613;SDS011;7393;51.446;6.800;2023-08-17T08:16:55;16.80;;;11.80;;
14613;SDS011;7393;51.446;6.800;2023-08-17T08:19:22;15.97;;;12.07;;
14613;SDS011;7393;51.446;6.800;2023-08-17T08:21:49;20.37;;;14.73;;
14613;SDS011;7393;51.446;6.800;2023-08-17T08:24:16;18.07;;;14.90;;
14613;SDS011;7393;51.446;6.800;2023-08-17T08:26:43;23.20;;;15.80;;
14613;SDS011;7393;51.446;6.800;2023-08-17T08:29:10;18.87;;;15.57;;
14613;SDS011;7393;51.446;6.800;2023-08-17T08:31:38;23.27;;;15.80;;
14613;SDS011;7393;51.446;6.800;2023-08-17T08:34:05;20.83;;;16.90;;
14613;SDS011;7393;51.446;6.800;2023-08-17T08:36:32;20.63;;;16.67;;
14613;SDS011;7393;51.446;6.800;2023-08-17T08:38:58;23.53;;;16.90;;
14613;SDS011;7393;51.446;6.800;2023-08-17T08:41:25;24.43;;;19.10;;
14613;SDS011;7393;51.446;6.800;2023-08-17T08:43:53;21.00;;;18.43;;
14613;SDS011;7393;51.446;6.800;2023-08-17T08:46:20;26.93;;;22.63;;
14613;SDS011;7393;51.446;6.800;2023-08-17T08:48:51;24.13;;;21.57;;
14613;SDS011;7393;51.446;6.800;2023-08-17T08:51:22;29.60;;;22.20;;
14613;SDS011;7393;51.446;6.800;2023-08-17T08:53:54;28.83;;;21.93;;
14613;SDS011;7393;51.446;6.800;2023-08-17T08:56:28;26.50;;;21.33;;
14613;SDS011;7393;51.446;6.800;2023-08-17T08:58:59;24.63;;;19.23;;
14613;SDS011;7393;51.446;6.800;2023-08-17T09:01:28;22.57;;;19.13;;
14613;SDS011;7393;51.446;6.800;2023-08-17T09:03:59;20.87;;;18.67;;
14613;SDS011;7393;51.446;6.800;2023-08-17T09:06:27;24.13;;;19.83;;
14613;SDS011;7393;51.446;6.800;2023-08-17T09:08:56;26.53;;;21.30;;
14613;SDS011;7393;51.446;6.800;2023-08-17T09:11:23;27.17;;;22.90;;
14613;SDS011;7393;51.446;6.800;2023-08-17T09:13:52;24.97;;;21.53;;
14613;SDS011;7393;51.446;6.800;2023-08-17T09:16:19;27.67;;;23.00;;
14613;SDS011;7393;51.446;6.800;2023-08-17T09:18:46;26.13;;;21.83;;
14613;SDS011;7393;51.446;6.800;2023-08-17T09:21:21;27.97;;;24.17;;
14613;SDS011;7393;51.446;6.800;2023-08-17T09:23:51;24.87;;;20.37;;
14613;SDS011;7393;51.446;6.800;2023-08-17T09:26:19;26.00;;;21.57;;
14613;SDS011;7393;51.446;6.800;2023-08-17T09:28:47;26.07;;;19.90;;
14613;SDS011;7393;51.446;6.800;2023-08-17T09:31:13;20.70;;;18.63;;
14613;SDS011;7393;51.446;6.800;2023-08-17T09:33:40;27.70;;;21.93;;
14613;SDS011;7393;51.446;6.800;2023-08-17T09:36:09;26.80;;;23.83;;
14613;SDS011;7393;51.446;6.800;2023-08-17T09:38:38;25.77;;;22.93;;
14613;SDS011;7393;51.446;6.800;2023-08-17T09:41:05;26.33;;;23.30;;
14613;SDS011;7393;51.446;6.800;2023-08-17T09:43:32;29.73;;;24.53;;
14613;SDS011;7393;51.446;6.800;2023-08-17T09:45:59;25.33;;;22.70;;
14613;SDS011;7393;51.446;6.800;2023-08-17T09:48:28;25.57;;;21.10;;
14613;SDS011;7393;51.446;6.800;2023-08-17T09:50:56;25.63;;;22.83;;
14613;SDS011;7393;51.446;6.800;2023-08-17T09:53:23;25.50;;;22.80;;
14613;SDS011;7393;51.446;6.800;2023-08-17T09:55:52;32.23;;;27.10;;
14613;SDS011;7393;51.446;6.800;2023-08-17T09:58:21;31.13;;;26.73;;
14613;SDS011;7393;51.446;6.800;2023-08-17T10:00:48;31.63;;;26.57;;
14613;SDS011;7393;51.446;6.800;2023-08-17T10:03:17;31.20;;;27.80;;
14613;SDS011;7393;51.446;6.800;2023-08-17T10:05:46;28.23;;;25.23;;
14613;SDS011;7393;51.446;6.800;2023-08-17T10:08:17;28.40;;;23.90;;
14613;SDS011;7393;51.446;6.800;2023-08-17T10:10:46;27.30;;;23.93;;
14613;SDS011;7393;51.446;6.800;2023-08-17T10:13:18;25.93;;;23.23;;
14613;SDS011;7393;51.446;6.800;2023-08-17T10:15:53;27.43;;;23.13;;
14613;SDS011;7393;51.446;6.800;2023-08-17T10:18:26;23.77;;;21.37;;
14613;SDS011;7393;51.446;6.800;2023-08-17T10:20:58;23.93;;;21.53;;
14613;SDS011;7393;51.446;6.800;2023-08-17T10:23:30;26.53;;;23.77;;
14613;SDS011;7393;51.446;6.800;2023-08-17T10:25:57;24.10;;;21.17;;
14613;SDS011;7393;51.446;6.800;2023-08-17T10:28:28;21.70;;;18.20;;
14613;SDS011;7393;51.446;6.800;2023-08-17T10:30:56;20.40;;;17.53;;
14613;SDS011;7393;51.446;6.800;2023-08-17T10:33:24;21.90;;;19.60;;
14613;SDS011;7393;51.446;6.800;2023-08-17T10:35:52;22.23;;;17.03;;
14613;SDS011;7393;51.446;6.800;2023-08-17T10:38:19;20.27;;;18.27;;
14613;SDS011;7393;51.446;6.800;2023-08-17T10:40:46;24.47;;;21.90;;
14613;SDS011;7393;51.446;6.800;2023-08-17T10:43:35;23.07;;;20.60;;
14613;SDS011;7393;51.446;6.800;2023-08-17T10:46:18;21.63;;;19.57;;
14613;SDS011;7393;51.446;6.800;2023-08-17T10:48:45;20.80;;;18.60;;
14613;SDS011;7393;51.446;6.800;2023-08-17T10:51:12;20.83;;;18.63;;
14613;SDS011;7393;51.446;6.800;2023-08-17T10:53:40;22.40;;;19.13;;
14613;SDS011;7393;51.446;6.800;2023-08-17T10:56:13;21.03;;;18.70;;
14613;SDS011;7393;51.446;6.800;2023-08-17T10:58:44;20.43;;;18.27;;
14613;SDS011;7393;51.446;6.800;2023-08-17T11:01:11;23.70;;;20.60;;
14613;SDS011;7393;51.446;6.800;2023-08-17T11:03:39;21.10;;;18.87;;
14613;SDS011;7393;51.446;6.800;2023-08-17T11:06:14;20.23;;;18.13;;
14613;SDS011;7393;51.446;6.800;2023-08-17T11:08:52;23.87;;;19.57;;
14613;SDS011;7393;51.446;6.800;2023-08-17T11:11:21;23.90;;;18.40;;
14613;SDS011;7393;51.446;6.800;2023-08-17T11:13:50;22.63;;;19.20;;
14613;SDS011;7393;51.446;6.800;2023-08-17T11:16:19;20.03;;;17.90;;
14613;SDS011;7393;51.446;6.800;2023-08-17T11:18:46;22.13;;;19.77;;
14613;SDS011;7393;51.446;6.800;2023-08-17T11:21:14;21.97;;;18.83;;
14613;SDS011;7393;51.446;6.800;2023-08-17T11:23:42;23.63;;;19.53;;
14613;SDS011;7393;51.446;6.800;2023-08-17T11:26:09;22.50;;;18.13;;
14613;SDS011;7393;51.446;6.800;2023-08-17T11:28:37;18.73;;;16.73;;
14613;SDS011;7393;51.446;6.800;2023-08-17T11:31:07;19.93;;;17.00;;
14613;SDS011;7393;51.446;6.800;2023-08-17T11:33:36;18.27;;;16.30;;
14613;SDS011;7393;51.446;6.800;2023-08-17T11:36:05;17.33;;;15.37;;
14613;SDS011;7393;51.446;6.800;2023-08-17T11:38:34;17.03;;;14.20;;
14613;SDS011;7393;51.446;6.800;2023-08-17T11:41:03;14.80;;;13.20;;
14613;SDS011;7393;51.446;6.800;2023-08-17T11:43:31;15.73;;;14.13;;
14613;SDS011;7393;51.446;6.800;2023-08-17T11:45:59;13.93;;;12.40;;
14613;SDS011;7393;51.446;6.800;2023-08-17T11:48:28;18.77;;;16.73;;
14613;SDS011;7393;51.446;6.800;2023-08-17T11:50:55;21.20;;;17.40;;
14613;SDS011;7393;51.446;6.800;2023-08-17T11:53:23;16.57;;;14.87;;
14613;SDS011;7393;51.446;6.800;2023-08-17T11:55:50;18.63;;;16.13;;
14613;SDS011;7393;51.446;6.800;2023-08-17T11:58:16;19.00;;;15.63;;
14613;SDS011;7393;51.446;6.800;2023-08-17T12:00:43;18.00;;;14.67;;
14613;SDS011;7393;51.446;6.800;2023-08-17T12:03:13;16.80;;;15.07;;
14613;SDS011;7393;51.446;6.800;2023-08-17T12:05:42;15.23;;;13.77;;
14613;SDS011;7393;51.446;6.800;2023-08-17T12:08:11;18.77;;;16.50;;
14613;SDS011;7393;51.446;6.800;2023-08-17T12:10:39;14.77;;;13.33;;
14613;SDS011;7393;51.446;6.800;2023-08-17T12:13:06;18.17;;;15.60;;
14613;SDS011;7393;51.446;6.800;2023-08-17T12:15:37;16.50;;;14.77;;
14613;SDS011;7393;51.446;6.800;2023-08-17T12:18:05;17.97;;;14.93;;
14613;SDS011;7393;51.446;6.800;2023-08-17T12:20:32;17.40;;;14.77;;
14613;SDS011;7393;51.446;6.800;2023-08-17T12:23:03;16.93;;;15.13;;
14613;SDS011;7393;51.446;6.800;2023-08-17T12:25:30;18.27;;;16.57;;
14613;SDS011;7393;51.446;6.800;2023-08-17T12:27:57;19.97;;;17.90;;
14613;SDS011;7393;51.446;6.800;2023-08-17T12:30:26;20.03;;;17.97;;
14613;SDS011;7393;51.446;6.800;2023-08-17T12:32:54;21.00;;;18.77;;
14613;SDS011;7393;51.446;6.800;2023-08-17T12:35:21;23.67;;;19.67;;
14613;SDS011;7393;51.446;6.800;2023-08-17T12:37:49;21.00;;;18.87;;
14613;SDS011;7393;51.446;6.800;2023-08-17T12:40:18;21.50;;;19.33;;
14613;SDS011;7393;51.446;6.800;2023-08-17T12:42:45;21.03;;;18.83;;
14613;SDS011;7393;51.446;6.800;2023-08-17T12:45:12;20.53;;;18.33;;
14613;SDS011;7393;51.446;6.800;2023-08-17T12:47:40;21.60;;;18.37;;
14613;SDS011;7393;51.446;6.800;2023-08-17T12:50:07;19.67;;;17.33;;
14613;SDS011;7393;51.446;6.800;2023-08-17T12:52:35;20.27;;;18.20;;
14613;SDS011;7393;51.446;6.800;2023-08-17T12:55:01;19.10;;;17.20;;
14613;SDS011;7393;51.446;6.800;2023-08-17T12:57:30;19.17;;;17.07;;
14613;SDS011;7393;51.446;6.800;2023-08-17T12:59:57;22.50;;;17.03;;
14613;SDS011;7393;51.446;6.800;2023-08-17T13:02:24;19.03;;;17.03;;
14613;SDS011;7393;51.446;6.800;2023-08-17T13:04:50;20.67;;;18.03;;
14613;SDS011;7393;51.446;6.800;2023-08-17T13:07:17;22.43;;;19.83;;
14613;SDS011;7393;51.446;6.800;2023-08-17T13:09:44;22.33;;;19.13;;
14613;SDS011;7393;51.446;6.800;2023-08-17T13:12:11;23.23;;;18.90;;
14613;SDS011;7393;51.446;6.800;2023-08-17T13:14:40;25.37;;;19.00;;
14613;SDS011;7393;51.446;6.800;2023-08-17T13:17:06;23.57;;;17.80;;
14613;SDS011;7393;51.446;6.800;2023-08-17T13:19:33;23.77;;;18.33;;
14613;SDS011;7393;51.446;6.800;2023-08-17T13:22:00;21.77;;;17.63;;
14613;SDS011;7393;51.446;6.800;2023-08-17T13:24:29;18.97;;;16.40;;
14613;SDS011;7393;51.446;6.800;2023-08-17T13:26:55;22.07;;;17.20;;
14613;SDS011;7393;51.446;6.800;2023-08-17T13:29:22;20.83;;;16.07;;
14613;SDS011;7393;51.446;6.800;2023-08-17T13:31:51;21.03;;;17.63;;
14613;SDS011;7393;51.446;6.800;2023-08-17T13:34:17;21.93;;;17.17;;
14613;SDS011;7393;51.446;6.800;2023-08-17T13:36:44;18.53;;;15.70;;
14613;SDS011;7393;51.446;6.800;2023-08-17T13:39:11;19.03;;;16.17;;
14613;SDS011;7393;51.446;6.800;2023-08-17T13:41:38;20.20;;;17.50;;
14613;SDS011;7393;51.446;6.800;2023-08-17T13:44:06;19.87;;;16.40;;
14613;SDS011;7393;51.446;6.800;2023-08-17T13:46:32;17.03;;;15.07;;
14613;SDS011;7393;51.446;6.800;2023-08-17T13:49:01;16.57;;;14.60;;
14613;SDS011;7393;51.446;6.800;2023-08-17T13:51:27;18.80;;;16.47;;
14613;SDS011;7393;51.446;6.800;2023-08-17T13:53:54;18.07;;;15.23;;
14613;SDS011;7393;51.446;6.800;2023-08-17T13:56:21;20.63;;;16.87;;
14613;SDS011;7393;51.446;6.800;2023-08-17T13:58:48;18.47;;;16.03;;
14613;SDS011;7393;51.446;6.800;2023-08-17T14:01:15;19.90;;;17.43;;
14613;SDS011;7393;51.446;6.800;2023-08-17T14:03:42;19.20;;;17.17;;
14613;SDS011;7393;51.446;6.800;2023-08-17T14:06:10;21.83;;;19.13;;
14613;SDS011;7393;51.446;6.800;2023-08-17T14:08:37;21.50;;;17.97;;
14613;SDS011;7393;51.446;6.800;2023-08-17T14:11:04;21.20;;;18.10;;
14613;SDS011;7393;51.446;6.800;2023-08-17T14:13:31;21.20;;;18.97;;
14613;SDS011;7393;51.446;6.800;2023-08-17T14:15:59;20.93;;;18.00;;
14613;SDS011;7393;51.446;6.800;2023-08-17T14:18:26;19.63;;;17.33;;
14613;SDS011;7393;51.446;6.800;2023-08-17T14:20:53;22.20;;;18.17;;
14613;SDS011;7393;51.446;6.800;2023-08-17T14:23:21;20.37;;;16.63;;
14613;SDS011;7393;51.446;6.800;2023-08-17T14:25:48;20.60;;;16.87;;
14613;SDS011;7393;51.446;6.800;2023-08-17T14:28:16;17.23;;;15.43;;
14613;SDS011;7393;51.446;6.800;2023-08-17T14:30:43;17.50;;;14.97;;
14613;SDS011;7393;51.446;6.800;2023-08-17T14:33:10;16.27;;;14.57;;
14613;SDS011;7393;51.446;6.800;2023-08-17T14:35:38;19.00;;;14.70;;
14613;SDS011;7393;51.446;6.800;2023-08-17T14:38:04;18.90;;;14.40;;
14613;SDS011;7393;51.446;6.800;2023-08-17T14:40:35;14.87;;;13.27;;
14613;SDS011;7393;51.446;6.800;2023-08-17T14:43:02;15.13;;;13.47;;
14613;SDS011;7393;51.446;6.800;2023-08-17T14:45:29;14.30;;;12.37;;
14613;SDS011;7393;51.446;6.800;2023-08-17T14:47:56;14.33;;;12.43;;
14613;SDS011;7393;51.446;6.800;2023-08-17T14:50:24;13.00;;;11.60;;